createdAt,value
2023-04-04T00:00:35.716Z,101187.94
2023-04-04T00:03:02.920Z,101183.16
2023-04-04T00:05:30.021Z,101188.47
2023-04-04T00:07:57.330Z,101179.75
2023-04-04T00:10:24.283Z,101187.81
2023-04-04T00:12:51.409Z,101191.75
2023-04-04T00:15:18.599Z,101187.44
2023-04-04T00:17:45.908Z,101182.63
2023-04-04T00:20:12.963Z,101174.56
2023-04-04T00:22:39.994Z,101177.97
2023-04-04T00:25:07.288Z,101182.38
2023-04-04T00:27:34.258Z,101168.84
2023-04-04T00:30:01.355Z,101169.88
2023-04-04T00:32:28.397Z,101176.13
2023-04-04T00:34:57.307Z,101175.88
2023-04-04T00:37:24.416Z,101174.56
2023-04-04T00:39:51.690Z,101163.09
2023-04-04T00:42:18.755Z,101177.94
2023-04-04T00:44:45.932Z,101174.56
2023-04-04T00:47:13.020Z,101160.91
2023-04-04T00:49:39.998Z,101167.28
2023-04-04T00:52:07.838Z,101161.53
2023-04-04T00:54:35.745Z,101160.53
2023-04-04T00:57:05.405Z,101160.09
2023-04-04T00:59:33.154Z,101161.00
2023-04-04T01:02:01.233Z,101154.13
2023-04-04T01:04:32.069Z,101146.44
2023-04-04T01:07:00.911Z,101147.50
2023-04-04T01:09:29.265Z,101133.06
2023-04-04T01:11:57.333Z,101137.72
2023-04-04T01:14:24.596Z,101129.94
2023-04-04T01:16:52.391Z,101128.47
2023-04-04T01:19:33.524Z,101127.28
2023-04-04T01:22:02.156Z,101122.25
2023-04-04T01:24:34.062Z,101112.47
2023-04-04T01:27:01.941Z,101117.03
2023-04-04T01:29:29.037Z,101120.56
2023-04-04T01:32:13.745Z,101118.69
2023-04-04T01:34:47.295Z,101124.66
2023-04-04T01:37:37.579Z,101121.00
2023-04-04T01:40:17.861Z,101124.78
2023-04-04T01:42:46.364Z,101113.00
2023-04-04T01:45:13.735Z,101110.41
2023-04-04T01:47:41.841Z,101119.44
2023-04-04T01:50:11.257Z,101114.00
2023-04-04T01:52:38.603Z,101112.34
2023-04-04T01:55:06.181Z,101118.00
2023-04-04T01:57:33.191Z,101115.28
2023-04-04T02:00:00.316Z,101108.19
2023-04-04T02:02:27.383Z,101112.56
2023-04-04T02:04:55.443Z,101122.19
2023-04-04T02:07:23.239Z,101115.13
2023-04-04T02:09:50.178Z,101119.31
2023-04-04T02:12:17.250Z,101117.00
2023-04-04T02:14:44.227Z,101105.91
2023-04-04T02:17:11.588Z,101115.59
2023-04-04T02:19:39.287Z,101109.09
2023-04-04T02:22:06.331Z,101121.91
2023-04-04T02:24:33.312Z,101118.78
2023-04-04T02:27:00.309Z,101122.28
2023-04-04T02:29:27.849Z,101122.69
2023-04-04T02:31:54.879Z,101122.88
2023-04-04T02:34:22.116Z,101127.28
2023-04-04T02:36:49.818Z,101113.50
2023-04-04T02:39:16.804Z,101119.50
2023-04-04T02:41:43.759Z,101130.78
2023-04-04T02:44:10.949Z,101125.06
2023-04-04T02:46:38.273Z,101115.69
2023-04-04T02:49:06.070Z,101120.66
2023-04-04T02:51:33.626Z,101122.69
2023-04-04T02:54:03.009Z,101131.31
2023-04-04T02:56:29.999Z,101126.19
2023-04-04T02:58:57.059Z,101128.94
2023-04-04T03:01:24.209Z,101122.78
2023-04-04T03:03:51.277Z,101131.97
2023-04-04T03:06:18.597Z,101127.41
2023-04-04T03:08:45.981Z,101139.34
2023-04-04T03:11:13.432Z,101133.63
2023-04-04T03:13:40.839Z,101130.78
2023-04-04T03:16:08.010Z,101136.03
2023-04-04T03:18:35.245Z,101128.84
2023-04-04T03:21:02.299Z,101133.38
2023-04-04T03:23:29.306Z,101127.34
2023-04-04T03:25:56.298Z,101124.41
2023-04-04T03:28:23.375Z,101131.91
2023-04-04T03:30:50.491Z,101123.84
2023-04-04T03:33:17.585Z,101125.06
2023-04-04T03:35:44.857Z,101121.13
2023-04-04T03:38:11.879Z,101119.03
2023-04-04T03:40:39.022Z,101121.41
2023-04-04T03:43:09.237Z,101117.28
2023-04-04T03:45:37.032Z,101118.16
2023-04-04T03:48:04.349Z,101124.88
2023-04-04T03:50:31.402Z,101117.50
2023-04-04T03:53:01.108Z,101119.75
2023-04-04T03:55:28.194Z,101123.78
2023-04-04T03:57:55.222Z,101117.53
2023-04-04T04:00:22.280Z,101123.78
2023-04-04T04:02:49.473Z,101119.94
2023-04-04T04:05:16.542Z,101125.53
2023-04-04T04:07:45.293Z,101120.34
2023-04-04T04:10:14.311Z,101124.19
2023-04-04T04:12:41.829Z,101118.50
2023-04-04T04:15:09.354Z,101119.34
2023-04-04T04:17:40.758Z,101124.38
2023-04-04T04:20:10.039Z,101118.00
2023-04-04T04:22:38.091Z,101113.72
2023-04-04T04:25:05.727Z,101115.97
2023-04-04T04:27:32.794Z,101128.13
2023-04-04T04:29:59.800Z,101124.75
2023-04-04T04:32:27.336Z,101112.84
2023-04-04T04:34:54.341Z,101112.75
2023-04-04T04:37:21.642Z,101115.47
2023-04-04T04:39:48.730Z,101112.94
2023-04-04T04:42:15.713Z,101104.28
2023-04-04T04:44:42.721Z,101104.91
2023-04-04T04:47:09.965Z,101106.47
2023-04-04T04:49:36.936Z,101092.09
2023-04-04T04:52:03.947Z,101091.16
2023-04-04T04:54:30.984Z,101087.50
2023-04-04T04:56:57.982Z,101091.41
2023-04-04T04:59:25.567Z,101081.97
2023-04-04T05:01:52.774Z,101081.03
2023-04-04T05:04:19.752Z,101075.03
2023-04-04T05:06:46.829Z,101076.44
2023-04-04T05:09:14.502Z,101061.47
2023-04-04T05:11:41.494Z,101072.44
2023-04-04T05:14:08.584Z,101069.06
2023-04-04T05:16:35.767Z,101073.00
2023-04-04T05:19:03.064Z,101070.63
2023-04-04T05:21:30.930Z,101068.16
2023-04-04T05:23:58.654Z,101057.44
2023-04-04T05:26:25.674Z,101060.84
2023-04-04T05:28:52.699Z,101052.31
2023-04-04T05:31:19.895Z,101064.41
2023-04-04T05:33:47.284Z,101061.50
2023-04-04T05:36:14.615Z,101061.91
2023-04-04T05:38:41.681Z,101068.94
2023-04-04T05:41:08.777Z,101060.53
2023-04-04T05:43:35.994Z,101067.41
2023-04-04T05:46:03.096Z,101065.91
2023-04-04T05:48:30.119Z,101065.81
2023-04-04T05:50:57.129Z,101069.56
2023-04-04T05:53:24.808Z,101067.63
2023-04-04T05:55:53.490Z,101070.88
2023-04-04T05:58:20.725Z,101070.66
2023-04-04T06:00:47.763Z,101063.44
2023-04-04T06:03:14.858Z,101070.75
2023-04-04T06:05:44.398Z,101060.16
2023-04-04T06:08:11.620Z,101061.91
2023-04-04T06:10:38.940Z,101054.25
2023-04-04T06:13:06.136Z,101062.66
2023-04-04T06:15:33.118Z,101065.97
2023-04-04T06:18:00.245Z,101058.53
2023-04-04T06:20:27.371Z,101064.66
2023-04-04T06:22:54.491Z,101050.44
2023-04-04T06:25:21.595Z,101043.59
2023-04-04T06:27:48.673Z,101057.19
2023-04-04T06:30:17.145Z,101053.22
2023-04-04T06:32:45.158Z,101045.19
2023-04-04T06:35:12.377Z,101052.03
2023-04-04T06:37:39.394Z,101039.44
2023-04-04T06:40:07.582Z,101046.22
2023-04-04T06:42:34.627Z,101046.06
2023-04-04T06:45:01.601Z,101042.31
2023-04-04T06:47:28.858Z,101032.88
2023-04-04T06:49:55.863Z,101034.34
2023-04-04T06:52:23.498Z,101038.19
2023-04-04T06:54:51.049Z,101029.41
2023-04-04T06:57:18.347Z,101037.47
2023-04-04T06:59:45.584Z,101026.34
2023-04-04T07:02:12.564Z,101034.72
2023-04-04T07:04:40.112Z,101033.66
2023-04-04T07:07:07.520Z,101035.59
2023-04-04T07:09:34.709Z,101031.88
2023-04-04T07:12:01.799Z,101024.94
2023-04-04T07:14:28.999Z,101030.38
2023-04-04T07:16:56.116Z,101033.34
2023-04-04T07:19:24.591Z,101032.38
2023-04-04T07:21:51.582Z,101030.63
2023-04-04T07:24:18.648Z,101038.56
2023-04-04T07:26:45.783Z,101030.47
2023-04-04T07:29:13.368Z,101041.59
2023-04-04T07:31:40.651Z,101032.03
2023-04-04T07:34:08.080Z,101040.41
2023-04-04T07:36:35.074Z,101029.53
2023-04-04T07:39:02.541Z,101037.91
2023-04-04T07:41:29.662Z,101041.22
2023-04-04T07:43:56.851Z,101032.03
2023-04-04T07:46:23.924Z,101022.00
2023-04-04T07:48:50.968Z,101026.28
2023-04-04T07:51:18.029Z,101030.28
2023-04-04T07:53:44.982Z,101034.19
2023-04-04T07:56:11.940Z,101030.84
2023-04-04T07:58:38.934Z,101019.50
2023-04-04T08:01:05.919Z,101025.75
2023-04-04T08:03:33.054Z,101010.34
2023-04-04T08:06:00.286Z,101006.34
2023-04-04T08:08:27.328Z,101016.16
2023-04-04T08:10:54.273Z,101026.94
2023-04-04T08:13:21.378Z,101018.00
2023-04-04T08:15:48.398Z,101005.75
2023-04-04T08:18:15.531Z,101006.34
2023-04-04T08:20:42.671Z,101004.34
2023-04-04T08:23:09.964Z,101005.44
2023-04-04T08:25:37.072Z,100997.25
2023-04-04T08:28:05.476Z,100997.53
2023-04-04T08:30:32.857Z,100997.53
2023-04-04T08:35:46.721Z,101009.19
2023-04-04T08:38:13.719Z,101011.16
2023-04-04T08:40:41.263Z,101013.09
2023-04-04T08:43:09.578Z,101012.19
2023-04-04T08:45:38.067Z,101012.34
2023-04-04T08:48:06.876Z,101005.19
2023-04-04T08:50:38.238Z,101011.81
2023-04-04T08:53:06.481Z,101015.53
2023-04-04T08:55:33.476Z,100995.41
2023-04-04T08:58:00.637Z,100998.81
2023-04-04T09:00:28.043Z,100999.53
2023-04-04T09:03:13.345Z,101012.50
2023-04-04T09:05:40.642Z,101005.31
2023-04-04T09:08:09.322Z,101005.72
2023-04-04T09:10:38.018Z,100995.34
2023-04-04T09:13:15.508Z,101002.16
2023-04-04T09:15:48.175Z,101004.50
2023-04-04T09:18:16.497Z,101007.97
2023-04-04T09:20:45.535Z,101005.78
2023-04-04T09:23:21.003Z,101009.00
2023-04-04T09:26:03.782Z,101005.66
2023-04-04T09:28:32.097Z,101006.94
2023-04-04T09:31:03.149Z,100987.41
2023-04-04T09:33:33.052Z,100997.66
2023-04-04T09:36:06.946Z,100989.25
2023-04-04T09:38:39.457Z,100998.47
2023-04-04T09:41:10.950Z,101004.06
2023-04-04T09:43:40.032Z,101006.56
2023-04-04T09:46:08.063Z,100999.47
2023-04-04T09:48:36.971Z,100990.13
2023-04-04T09:51:12.082Z,100982.25
2023-04-04T09:53:42.181Z,100986.56
2023-04-04T09:56:09.693Z,100974.88
2023-04-04T09:58:42.311Z,100992.03
2023-04-04T10:01:18.477Z,100988.56
2023-04-04T10:03:56.053Z,100991.06
2023-04-04T10:06:23.613Z,100983.16
2023-04-04T10:08:51.177Z,100992.19
2023-04-04T10:11:38.953Z,100983.97
2023-04-04T10:14:06.020Z,100982.19
2023-04-04T10:16:38.703Z,100998.88
2023-04-04T10:19:09.098Z,100998.50
2023-04-04T10:21:36.833Z,100994.13
2023-04-04T10:24:09.418Z,100999.25
2023-04-04T10:26:37.477Z,101000.94
2023-04-04T10:29:06.266Z,100984.72
2023-04-04T10:31:38.386Z,101004.63
2023-04-04T10:34:20.552Z,100994.19
2023-04-04T10:37:15.185Z,100986.09
2023-04-04T10:40:15.190Z,100981.81
2023-04-04T10:42:47.747Z,100985.38
2023-04-04T10:45:20.556Z,100986.06
2023-04-04T10:47:49.613Z,100979.97
2023-04-04T10:50:16.843Z,100971.53
2023-04-04T10:52:45.441Z,100979.16
2023-04-04T10:55:15.055Z,100980.72
2023-04-04T10:57:51.893Z,100975.91
2023-04-04T11:00:20.459Z,100979.22
2023-04-04T11:02:57.848Z,100975.22
2023-04-04T11:05:30.999Z,100982.19
2023-04-04T11:08:08.266Z,100973.06
2023-04-04T11:10:57.935Z,100973.75
2023-04-04T11:13:39.898Z,100980.88
2023-04-04T11:16:15.509Z,100980.56
2023-04-04T11:18:42.589Z,100983.19
2023-04-04T11:21:18.483Z,100983.81
2023-04-04T11:23:51.401Z,100993.06
2023-04-04T11:26:30.119Z,100989.38
2023-04-04T11:29:09.726Z,100979.22
2023-04-04T11:31:43.917Z,100985.13
2023-04-04T11:34:29.218Z,100991.59
2023-04-04T11:36:57.967Z,100984.31
2023-04-04T11:39:31.434Z,100977.50
2023-04-04T11:42:14.940Z,100979.91
2023-04-04T11:45:07.595Z,100979.91
2023-04-04T11:47:34.882Z,100976.94
2023-04-04T11:50:07.817Z,100965.84
2023-04-04T11:52:35.386Z,100966.59
2023-04-04T11:55:02.648Z,100967.22
2023-04-04T11:57:29.682Z,100976.66
2023-04-04T11:59:57.855Z,100991.88
2023-04-04T12:02:34.407Z,100989.59
2023-04-04T12:05:02.887Z,100986.63
2023-04-04T12:07:30.340Z,100977.75
2023-04-04T12:09:58.699Z,100986.09
2023-04-04T12:12:28.392Z,100977.28
2023-04-04T12:15:06.271Z,100977.56
2023-04-04T12:17:42.343Z,100980.00
2023-04-04T12:20:15.487Z,100968.25
2023-04-04T12:22:43.048Z,100977.47
2023-04-04T12:25:10.304Z,100981.44
2023-04-04T12:27:38.616Z,100973.22
2023-04-04T12:30:11.276Z,100981.53
2023-04-04T12:32:38.340Z,100969.69
2023-04-04T12:35:06.438Z,100979.56
2023-04-04T12:37:34.329Z,100983.81
2023-04-04T12:40:03.083Z,100971.88
2023-04-04T12:42:31.882Z,100964.09
2023-04-04T12:45:02.111Z,100959.75
2023-04-04T12:47:31.425Z,100964.06
2023-04-04T12:49:58.681Z,100965.44
2023-04-04T12:52:32.482Z,100961.94
2023-04-04T12:55:09.374Z,100959.38
2023-04-04T12:57:39.485Z,100961.38
2023-04-04T13:00:09.023Z,100956.22
2023-04-04T13:02:39.996Z,100957.94
2023-04-04T13:05:10.197Z,100950.88
2023-04-04T13:07:43.958Z,100948.97
2023-04-04T13:10:15.114Z,100946.56
2023-04-04T13:13:02.524Z,100944.75
2023-04-04T13:15:49.304Z,100948.16
2023-04-04T13:18:23.551Z,100948.81
2023-04-04T13:20:53.105Z,100950.25
2023-04-04T13:23:21.821Z,100947.78
2023-04-04T13:25:49.155Z,100945.44
2023-04-04T13:28:16.470Z,100951.34
2023-04-04T13:30:48.884Z,100958.47
2023-04-04T13:33:17.650Z,100952.75
2023-04-04T13:35:46.341Z,100951.56
2023-04-04T13:38:13.829Z,100951.25
2023-04-04T13:40:41.216Z,100946.81
2023-04-04T13:43:11.350Z,100934.03
2023-04-04T13:45:38.825Z,100940.84
2023-04-04T13:48:06.260Z,100938.13
2023-04-04T13:50:36.086Z,100939.03
2023-04-04T13:53:03.106Z,100936.50
2023-04-04T13:55:30.581Z,100930.63
2023-04-04T13:57:57.648Z,100922.97
2023-04-04T14:00:25.640Z,100932.78
2023-04-04T14:02:55.671Z,100927.88
2023-04-04T14:05:23.782Z,100930.44
2023-04-04T14:07:51.195Z,100927.44
2023-04-04T14:10:18.297Z,100929.81
2023-04-04T14:12:45.379Z,100924.63
2023-04-04T14:15:12.460Z,100930.97
2023-04-04T14:17:39.545Z,100925.19
2023-04-04T14:20:08.215Z,100927.28
2023-04-04T14:22:35.674Z,100930.25
2023-04-04T14:25:03.325Z,100928.97
2023-04-04T14:27:30.551Z,100929.94
2023-04-04T14:29:57.589Z,100923.88
2023-04-04T14:32:25.667Z,100927.00
2023-04-04T14:34:52.718Z,100922.81
2023-04-04T14:37:20.341Z,100926.38
2023-04-04T14:39:47.563Z,100906.56
2023-04-04T14:42:14.841Z,100917.41
2023-04-04T14:44:42.339Z,100915.47
2023-04-04T14:47:09.612Z,100926.91
2023-04-04T14:49:36.683Z,100907.09
2023-04-04T14:52:03.969Z,100923.75
2023-04-04T14:54:31.149Z,100913.41
2023-04-04T14:56:58.615Z,100913.69
2023-04-04T14:59:25.789Z,100915.38
2023-04-04T15:01:52.819Z,100918.84
2023-04-04T15:04:19.905Z,100911.78
2023-04-04T15:06:47.017Z,100908.56
2023-04-04T15:09:16.657Z,100907.25
2023-04-04T15:11:43.746Z,100905.34
2023-04-04T15:14:10.841Z,100909.41
2023-04-04T15:16:38.439Z,100896.22
2023-04-04T15:19:05.662Z,100910.34
2023-04-04T15:21:32.794Z,100902.81
2023-04-04T15:23:59.928Z,100914.59
2023-04-04T15:26:27.030Z,100902.94
2023-04-04T15:28:54.089Z,100910.78
2023-04-04T15:31:21.213Z,100911.06
2023-04-04T15:33:48.547Z,100911.06
2023-04-04T15:36:15.622Z,100906.25
2023-04-04T15:38:42.668Z,100906.84
2023-04-04T15:41:10.288Z,100906.44
2023-04-04T15:43:37.602Z,100903.28
2023-04-04T15:46:05.491Z,100899.03
2023-04-04T15:48:34.311Z,100904.91
2023-04-04T15:51:05.236Z,100907.91
2023-04-04T15:53:33.436Z,100916.56
2023-04-04T15:56:02.061Z,100907.63
2023-04-04T15:58:29.138Z,100912.63
2023-04-04T16:00:56.446Z,100907.84
2023-04-04T16:03:25.704Z,100906.84
2023-04-04T16:05:52.901Z,100907.41
2023-04-04T16:08:20.017Z,100911.63
2023-04-04T16:10:47.021Z,100905.50
2023-04-04T16:13:14.286Z,100903.47
2023-04-04T16:15:41.369Z,100905.59
2023-04-04T16:18:08.961Z,100904.34
2023-04-04T16:20:36.257Z,100903.69
2023-04-04T16:23:03.398Z,100900.06
2023-04-04T16:25:30.613Z,100901.41
2023-04-04T16:27:57.678Z,100900.59
2023-04-04T16:30:24.805Z,100908.06
2023-04-04T16:32:51.910Z,100899.50
2023-04-04T16:35:19.095Z,100901.41
2023-04-04T16:37:46.158Z,100907.31
2023-04-04T16:40:14.860Z,100912.88
2023-04-04T16:42:42.522Z,100900.50
2023-04-04T16:45:11.090Z,100908.25
2023-04-04T16:47:38.302Z,100907.63
2023-04-04T16:50:07.124Z,100913.59
2023-04-04T16:52:34.242Z,100917.59
2023-04-04T16:55:01.377Z,100916.38
2023-04-04T16:57:28.471Z,100911.25
2023-04-04T16:59:55.511Z,100909.53
2023-04-04T17:02:22.601Z,100905.94
2023-04-04T17:04:49.728Z,100912.69
2023-04-04T17:07:16.996Z,100910.75
2023-04-04T17:09:44.500Z,100911.56
2023-04-04T17:12:12.970Z,100913.16
2023-04-04T17:14:40.006Z,100912.25
2023-04-04T17:17:07.031Z,100910.38
2023-04-04T17:19:35.226Z,100910.28
2023-04-04T17:22:03.331Z,100909.44
2023-04-04T17:24:30.618Z,100915.38
2023-04-04T17:27:00.546Z,100909.16
2023-04-04T17:29:27.668Z,100905.63
2023-04-04T17:31:56.671Z,100910.16
2023-04-04T17:34:24.476Z,100914.16
2023-04-04T17:36:53.141Z,100920.41
2023-04-04T17:39:20.246Z,100926.75
2023-04-04T17:41:47.881Z,100927.75
2023-04-04T17:44:16.681Z,100926.06
2023-04-04T17:46:45.109Z,100927.88
2023-04-04T17:49:12.730Z,100927.84
2023-04-04T17:51:39.746Z,100929.34
2023-04-04T17:54:06.857Z,100920.72
2023-04-04T17:56:33.914Z,100927.75
2023-04-04T17:59:01.079Z,100933.78
2023-04-04T18:01:29.498Z,100942.38
2023-04-04T18:03:58.086Z,100942.22
2023-04-04T18:06:25.172Z,100941.72
2023-04-04T18:08:52.345Z,100938.66
2023-04-04T18:11:19.324Z,100941.03
2023-04-04T18:13:46.278Z,100945.94
2023-04-04T18:16:13.431Z,100944.13
2023-04-04T18:18:40.700Z,100942.47
2023-04-04T18:21:08.519Z,100947.84
2023-04-04T18:23:35.676Z,100934.94
2023-04-04T18:26:03.332Z,100952.44
2023-04-04T18:28:30.388Z,100950.59
2023-04-04T18:30:58.588Z,100950.53
2023-04-04T18:33:26.589Z,100944.38
2023-04-04T18:35:54.833Z,100946.56
2023-04-04T18:38:21.955Z,100948.78
2023-04-04T18:40:48.991Z,100948.78
2023-04-04T18:43:16.112Z,100957.50
2023-04-04T18:45:43.311Z,100953.22
2023-04-04T18:48:12.536Z,100962.66
2023-04-04T18:50:40.540Z,100949.09
2023-04-04T18:53:07.992Z,100960.88
2023-04-04T18:55:35.015Z,100956.06
2023-04-04T18:58:02.008Z,100955.38
2023-04-04T19:00:29.108Z,100950.75
2023-04-04T19:02:57.130Z,100953.16
2023-04-04T19:05:24.767Z,100952.97
2023-04-04T19:07:54.443Z,100948.78
2023-04-04T19:10:22.131Z,100941.78
2023-04-04T19:12:49.364Z,100947.91
2023-04-04T19:15:16.490Z,100946.84
2023-04-04T19:17:43.815Z,100955.13
2023-04-04T19:20:12.452Z,100947.75
2023-04-04T19:22:39.521Z,100948.69
2023-04-04T19:25:06.658Z,100941.13
2023-04-04T19:27:33.659Z,100943.50
2023-04-04T19:30:00.711Z,100945.50
2023-04-04T19:32:28.549Z,100942.34
2023-04-04T19:34:56.444Z,100941.03
2023-04-04T19:37:24.401Z,100935.94
2023-04-04T19:39:51.454Z,100943.03
2023-04-04T19:42:25.917Z,100937.09
2023-04-04T19:44:53.144Z,100943.81
2023-04-04T19:47:20.859Z,100943.25
2023-04-04T19:49:52.026Z,100943.19
2023-04-04T19:52:24.152Z,100951.34
2023-04-04T19:54:51.148Z,100953.47
2023-04-04T19:57:20.606Z,100942.34
2023-04-04T20:00:13.801Z,100941.47
2023-04-04T20:02:55.116Z,100948.84
2023-04-04T20:05:33.851Z,100938.16
2023-04-04T20:08:01.662Z,100938.78
2023-04-04T20:10:42.693Z,100949.22
2023-04-04T20:13:10.486Z,100947.25
2023-04-04T20:15:46.538Z,100962.72
2023-04-04T20:18:34.227Z,100951.81
2023-04-04T20:21:06.748Z,100956.47
2023-04-04T20:24:00.343Z,100953.75
2023-04-04T20:26:42.528Z,100951.59
2023-04-04T20:29:15.779Z,100957.25
2023-04-04T20:32:03.031Z,100956.44
2023-04-04T20:34:49.880Z,100949.75
2023-04-04T20:37:26.443Z,100957.47
2023-04-04T20:39:55.382Z,100962.22
2023-04-04T20:42:31.053Z,100961.44
2023-04-04T20:45:10.406Z,100956.31
2023-04-04T20:47:52.873Z,100954.56
2023-04-04T20:50:44.097Z,100955.72
2023-04-04T20:53:18.034Z,100951.50
2023-04-04T20:55:45.092Z,100956.03
2023-04-04T20:58:32.338Z,100959.09
2023-04-04T21:01:00.924Z,100961.72
2023-04-04T21:03:36.732Z,100959.88
2023-04-04T21:06:14.966Z,100956.31
2023-04-04T21:08:52.205Z,100935.97
2023-04-04T21:11:29.191Z,100945.75
2023-04-04T21:13:57.063Z,100944.06
2023-04-04T21:16:28.036Z,100947.81
2023-04-04T21:18:59.739Z,100938.59
2023-04-04T21:21:27.303Z,100941.28
2023-04-04T21:23:57.397Z,100940.41
2023-04-04T21:26:32.222Z,100952.16
2023-04-04T21:29:02.720Z,100942.06
2023-04-04T21:31:40.886Z,100946.38
2023-04-04T21:34:14.922Z,100941.50
2023-04-04T21:36:42.790Z,100937.84
2023-04-04T21:39:29.707Z,100941.59
2023-04-04T21:42:04.622Z,100943.16
2023-04-04T21:44:33.312Z,100929.31
2023-04-04T21:47:00.293Z,100940.69
2023-04-04T21:49:28.433Z,100940.66
2023-04-04T21:51:55.433Z,100945.38
2023-04-04T21:54:23.784Z,100928.72
2023-04-04T21:56:50.797Z,100926.31
2023-04-04T21:59:17.925Z,100933.19
2023-04-04T22:01:44.984Z,100937.41
2023-04-04T22:04:12.078Z,100921.44
2023-04-04T22:06:39.178Z,100938.09
2023-04-04T22:09:06.572Z,100940.50
2023-04-04T22:11:35.013Z,100941.06
2023-04-04T22:14:07.287Z,100944.38
2023-04-04T22:16:39.833Z,100926.38
2023-04-04T22:19:07.742Z,100944.13
2023-04-04T22:21:37.086Z,100929.56
2023-04-04T22:24:06.140Z,100936.09
2023-04-04T22:26:33.682Z,100937.66
2023-04-04T22:29:03.192Z,100933.88
2023-04-04T22:31:31.106Z,100935.09
2023-04-04T22:33:58.288Z,100933.56
2023-04-04T22:36:25.491Z,100939.31
2023-04-04T22:38:58.740Z,100926.16
2023-04-04T22:41:28.354Z,100928.53
2023-04-04T22:43:56.792Z,100940.00
2023-04-04T22:46:25.864Z,100939.34
2023-04-04T22:49:04.927Z,100938.66
2023-04-04T22:51:35.166Z,100942.84
2023-04-04T22:54:03.203Z,100938.81
2023-04-04T22:56:30.599Z,100940.81
2023-04-04T22:58:58.006Z,100939.88
2023-04-04T23:01:25.325Z,100931.47
2023-04-04T23:03:52.422Z,100915.91
2023-04-04T23:06:20.047Z,100928.63
2023-04-04T23:08:47.216Z,100932.16
2023-04-04T23:11:14.219Z,100929.94
2023-04-04T23:13:43.263Z,100934.09
2023-04-04T23:16:10.442Z,100932.28
2023-04-04T23:18:37.568Z,100927.84
2023-04-04T23:21:04.614Z,100927.25
2023-04-04T23:23:31.656Z,100923.81
2023-04-04T23:25:58.636Z,100921.50
2023-04-04T23:28:29.941Z,100918.13
2023-04-04T23:30:57.095Z,100909.84
2023-04-04T23:33:24.158Z,100908.91
2023-04-04T23:35:51.556Z,100913.47
2023-04-04T23:38:18.570Z,100909.44
2023-04-04T23:40:45.654Z,100904.78
2023-04-04T23:43:12.617Z,100899.47
2023-04-04T23:45:41.347Z,100901.50
2023-04-04T23:48:08.585Z,100907.63
2023-04-04T23:50:35.934Z,100899.53
2023-04-04T23:53:02.962Z,100901.38
2023-04-04T23:55:30.174Z,100893.97
2023-04-04T23:58:00.957Z,100897.06
